Terminal Aerodrome Forecast
Issued by NWS Corpus Christi, TX

Home | Current Version | Previous Version | Text Only | Print | Product List | Glossary On
Versions: 1 2 3 4 5 6 7 8 9 10 11 12 13 14
000
FTUS44 KCRP 291100
TAFVCT
TAF
KVCT 291130Z 2912/3012 VRB03KT 5SM BR FEW012 SCT250
      TEMPO 2912/2914 3SM BR
     FM291400 VRB06KT P6SM SCT040 SCT250
     FM301000 VRB02KT 5SM BR SCT250=

USA.gov is the U.S. government's official web portal to all federal, state and local government web resources and services.